sensor_id;sensor_type;location;lat;lon;timestamp;temperature;humidity
71297;SHT31;59082;50.658;4.608;2022-12-07T00:01:06;3.89;99.99
71297;SHT31;59082;50.658;4.608;2022-12-07T00:03:33;3.93;99.99
71297;SHT31;59082;50.658;4.608;2022-12-07T00:06:00;3.96;99.99
71297;SHT31;59082;50.658;4.608;2022-12-07T00:08:25;3.99;99.99
71297;SHT31;59082;50.658;4.608;2022-12-07T00:10:51;3.98;99.99
71297;SHT31;59082;50.658;4.608;2022-12-07T00:13:16;3.99;99.99
71297;SHT31;59082;50.658;4.608;2022-12-07T00:15:42;4.05;99.99
71297;SHT31;59082;50.658;4.608;2022-12-07T00:18:07;4.07;99.99
71297;SHT31;59082;50.658;4.608;2022-12-07T00:20:33;4.10;99.99
71297;SHT31;59082;50.658;4.608;2022-12-07T00:22:59;4.10;99.99
71297;SHT31;59082;50.658;4.608;2022-12-07T00:25:25;4.01;99.99
71297;SHT31;59082;50.658;4.608;2022-12-07T00:27:52;3.93;99.99
71297;SHT31;59082;50.658;4.608;2022-12-07T00:30:19;3.89;99.99
71297;SHT31;59082;50.658;4.608;2022-12-07T00:32:44;3.88;99.99
71297;SHT31;59082;50.658;4.608;2022-12-07T00:35:10;3.72;99.99
71297;SHT31;59082;50.658;4.608;2022-12-07T00:37:35;3.70;99.99
71297;SHT31;59082;50.658;4.608;2022-12-07T00:40:01;3.68;99.99
71297;SHT31;59082;50.658;4.608;2022-12-07T00:42:26;3.67;99.99
71297;SHT31;59082;50.658;4.608;2022-12-07T00:44:52;3.67;99.99
71297;SHT31;59082;50.658;4.608;2022-12-07T00:47:17;3.63;99.99
71297;SHT31;59082;50.658;4.608;2022-12-07T00:49:43;3.61;99.99
71297;SHT31;59082;50.658;4.608;2022-12-07T00:52:09;3.60;99.99
71297;SHT31;59082;50.658;4.608;2022-12-07T00:54:35;3.61;99.99
71297;SHT31;59082;50.658;4.608;2022-12-07T00:57:00;3.60;99.99
71297;SHT31;59082;50.658;4.608;2022-12-07T00:59:26;3.51;99.99
71297;SHT31;59082;50.658;4.608;2022-12-07T01:01:51;3.50;99.99
71297;SHT31;59082;50.658;4.608;2022-12-07T01:04:17;3.55;99.99
71297;SHT31;59082;50.658;4.608;2022-12-07T01:06:42;3.55;99.99
71297;SHT31;59082;50.658;4.608;2022-12-07T01:09:08;3.57;99.99
71297;SHT31;59082;50.658;4.608;2022-12-07T01:11:33;3.61;99.99
71297;SHT31;59082;50.658;4.608;2022-12-07T01:14:00;3.64;99.99
71297;SHT31;59082;50.658;4.608;2022-12-07T01:16:27;3.54;99.99
71297;SHT31;59082;50.658;4.608;2022-12-07T01:18:55;3.57;99.99
71297;SHT31;59082;50.658;4.608;2022-12-07T01:21:24;3.61;99.99
71297;SHT31;59082;50.658;4.608;2022-12-07T01:23:51;3.60;99.99
71297;SHT31;59082;50.658;4.608;2022-12-07T01:26:23;3.53;99.99
71297;SHT31;59082;50.658;4.608;2022-12-07T01:28:49;3.53;99.99
71297;SHT31;59082;50.658;4.608;2022-12-07T01:31:21;3.53;99.99
71297;SHT31;59082;50.658;4.608;2022-12-07T07:43:32;3.24;99.99
71297;SHT31;59082;50.658;4.608;2022-12-07T07:45:57;3.27;99.99
71297;SHT31;59082;50.658;4.608;2022-12-07T07:48:23;3.26;99.99
71297;SHT31;59082;50.658;4.608;2022-12-07T07:50:51;3.23;99.99
71297;SHT31;59082;50.658;4.608;2022-12-07T07:53:16;3.30;99.99
71297;SHT31;59082;50.658;4.608;2022-12-07T07:55:50;3.30;99.99
71297;SHT31;59082;50.658;4.608;2022-12-07T07:58:15;3.36;99.99
71297;SHT31;59082;50.658;4.608;2022-12-07T08:00:41;3.40;99.99
71297;SHT31;59082;50.658;4.608;2022-12-07T08:03:07;3.43;99.99
71297;SHT31;59082;50.658;4.608;2022-12-07T08:05:32;3.43;99.99
71297;SHT31;59082;50.658;4.608;2022-12-07T08:07:58;3.43;99.99
71297;SHT31;59082;50.658;4.608;2022-12-07T08:10:24;3.44;99.99
71297;SHT31;59082;50.658;4.608;2022-12-07T08:12:50;3.41;99.99
71297;SHT31;59082;50.658;4.608;2022-12-07T08:15:38;3.55;99.99
71297;SHT31;59082;50.658;4.608;2022-12-07T08:18:04;3.60;99.99
71297;SHT31;59082;50.658;4.608;2022-12-07T08:20:31;3.57;99.99
71297;SHT31;59082;50.658;4.608;2022-12-07T08:22:57;3.53;99.99
71297;SHT31;59082;50.658;4.608;2022-12-07T08:25:22;3.55;99.99
71297;SHT31;59082;50.658;4.608;2022-12-07T08:27:48;3.54;99.99
71297;SHT31;59082;50.658;4.608;2022-12-07T08:30:14;3.61;99.99
71297;SHT31;59082;50.658;4.608;2022-12-07T08:32:40;3.61;99.99
71297;SHT31;59082;50.658;4.608;2022-12-07T08:35:07;3.65;99.99
71297;SHT31;59082;50.658;4.608;2022-12-07T08:37:33;3.64;99.99
71297;SHT31;59082;50.658;4.608;2022-12-07T08:39:58;3.53;99.99
71297;SHT31;59082;50.658;4.608;2022-12-07T08:42:24;3.50;99.99
71297;SHT31;59082;50.658;4.608;2022-12-07T08:44:55;3.41;99.99
71297;SHT31;59082;50.658;4.608;2022-12-07T08:47:21;3.41;99.99
71297;SHT31;59082;50.658;4.608;2022-12-07T08:49:48;3.34;99.99
71297;SHT31;59082;50.658;4.608;2022-12-07T08:52:15;3.33;99.99
71297;SHT31;59082;50.658;4.608;2022-12-07T08:54:41;3.27;99.99
71297;SHT31;59082;50.658;4.608;2022-12-07T08:57:07;3.30;99.99
71297;SHT31;59082;50.658;4.608;2022-12-07T08:59:35;3.36;99.99
71297;SHT31;59082;50.658;4.608;2022-12-07T09:02:01;3.41;99.99
71297;SHT31;59082;50.658;4.608;2022-12-07T09:04:26;3.54;99.99
71297;SHT31;59082;50.658;4.608;2022-12-07T09:06:53;3.60;99.99
71297;SHT31;59082;50.658;4.608;2022-12-07T09:09:19;3.70;99.99
71297;SHT31;59082;50.658;4.608;2022-12-07T09:11:45;3.96;99.99
71297;SHT31;59082;50.658;4.608;2022-12-07T09:14:11;4.43;99.99
71297;SHT31;59082;50.658;4.608;2022-12-07T09:16:37;4.67;99.99
71297;SHT31;59082;50.658;4.608;2022-12-07T09:19:03;4.87;99.99
71297;SHT31;59082;50.658;4.608;2022-12-07T09:21:29;4.98;99.99
71297;SHT31;59082;50.658;4.608;2022-12-07T09:23:55;5.26;99.99
71297;SHT31;59082;50.658;4.608;2022-12-07T09:26:20;5.02;99.99
71297;SHT31;59082;50.658;4.608;2022-12-07T09:28:46;5.13;99.99
71297;SHT31;59082;50.658;4.608;2022-12-07T09:31:12;5.05;99.99
71297;SHT31;59082;50.658;4.608;2022-12-07T09:33:38;5.00;99.99
71297;SHT31;59082;50.658;4.608;2022-12-07T09:36:04;5.00;99.99
71297;SHT31;59082;50.658;4.608;2022-12-07T09:38:30;5.15;99.99
71297;SHT31;59082;50.658;4.608;2022-12-07T09:40:57;5.13;99.99
71297;SHT31;59082;50.658;4.608;2022-12-07T09:43:29;5.85;99.99
71297;SHT31;59082;50.658;4.608;2022-12-07T09:45:55;6.84;99.99
71297;SHT31;59082;50.658;4.608;2022-12-07T09:48:28;7.35;99.99
71297;SHT31;59082;50.658;4.608;2022-12-07T09:50:55;7.26;99.99
71297;SHT31;59082;50.658;4.608;2022-12-07T09:53:27;7.32;99.99
71297;SHT31;59082;50.658;4.608;2022-12-07T09:55:53;6.92;99.99
71297;SHT31;59082;50.658;4.608;2022-12-07T09:58:23;7.15;99.99
71297;SHT31;59082;50.658;4.608;2022-12-07T10:03:37;6.91;99.99
71297;SHT31;59082;50.658;4.608;2022-12-07T10:06:05;7.01;99.99
71297;SHT31;59082;50.658;4.608;2022-12-07T10:08:31;7.16;99.99
71297;SHT31;59082;50.658;4.608;2022-12-07T10:10:57;7.02;99.99
71297;SHT31;59082;50.658;4.608;2022-12-07T10:13:46;7.01;99.99
71297;SHT31;59082;50.658;4.608;2022-12-07T10:19:26;6.99;99.99
71297;SHT31;59082;50.658;4.608;2022-12-07T10:22:13;7.04;99.99
71297;SHT31;59082;50.658;4.608;2022-12-07T10:24:40;7.33;99.99
71297;SHT31;59082;50.658;4.608;2022-12-07T10:27:40;7.37;99.99
71297;SHT31;59082;50.658;4.608;2022-12-07T10:30:08;7.30;99.99
71297;SHT31;59082;50.658;4.608;2022-12-07T10:32:38;7.19;99.99
71297;SHT31;59082;50.658;4.608;2022-12-07T10:35:25;7.32;99.99
71297;SHT31;59082;50.658;4.608;2022-12-07T10:37:52;7.59;99.99
71297;SHT31;59082;50.658;4.608;2022-12-07T10:40:28;7.70;99.99
71297;SHT31;59082;50.658;4.608;2022-12-07T11:09:36;7.74;99.99
71297;SHT31;59082;50.658;4.608;2022-12-07T11:12:19;7.63;99.99
71297;SHT31;59082;50.658;4.608;2022-12-07T11:15:12;7.73;99.99
71297;SHT31;59082;50.658;4.608;2022-12-07T11:20:46;7.84;99.99
71297;SHT31;59082;50.658;4.608;2022-12-07T11:25:57;7.69;99.99
71297;SHT31;59082;50.658;4.608;2022-12-07T11:28:40;7.69;99.99
71297;SHT31;59082;50.658;4.608;2022-12-07T11:31:31;7.47;99.99
71297;SHT31;59082;50.658;4.608;2022-12-07T11:34:10;7.30;99.99
71297;SHT31;59082;50.658;4.608;2022-12-07T11:36:44;7.43;99.99
71297;SHT31;59082;50.658;4.608;2022-12-07T11:39:36;7.37;99.99
71297;SHT31;59082;50.658;4.608;2022-12-07T11:42:09;7.33;99.99
71297;SHT31;59082;50.658;4.608;2022-12-07T11:44:56;7.60;99.99
71297;SHT31;59082;50.658;4.608;2022-12-07T11:50:42;7.66;99.99
71297;SHT31;59082;50.658;4.608;2022-12-07T11:55:52;7.53;99.99
71297;SHT31;59082;50.658;4.608;2022-12-07T12:04:01;7.12;99.99
71297;SHT31;59082;50.658;4.608;2022-12-07T12:06:27;6.94;99.99
71297;SHT31;59082;50.658;4.608;2022-12-07T12:09:04;6.90;99.99
71297;SHT31;59082;50.658;4.608;2022-12-07T12:22:48;6.98;99.99
71297;SHT31;59082;50.658;4.608;2022-12-07T12:25:23;6.61;99.99
71297;SHT31;59082;50.658;4.608;2022-12-07T12:27:50;6.47;99.99
71297;SHT31;59082;50.658;4.608;2022-12-07T12:30:36;6.32;99.99
71297;SHT31;59082;50.658;4.608;2022-12-07T12:33:27;6.26;99.99
71297;SHT31;59082;50.658;4.608;2022-12-07T12:39:14;6.01;99.99
71297;SHT31;59082;50.658;4.608;2022-12-07T12:47:01;7.14;99.99
71297;SHT31;59082;50.658;4.608;2022-12-07T12:57:34;7.50;99.99
71297;SHT31;59082;50.658;4.608;2022-12-07T13:02:39;6.98;99.99
71297;SHT31;59082;50.658;4.608;2022-12-07T13:15:48;7.12;99.99
71297;SHT31;59082;50.658;4.608;2022-12-07T13:29:20;7.08;99.99
71297;SHT31;59082;50.658;4.608;2022-12-07T13:34:37;7.07;99.99
71297;SHT31;59082;50.658;4.608;2022-12-07T13:40:01;7.07;99.99
71297;SHT31;59082;50.658;4.608;2022-12-07T13:42:37;7.07;99.99
71297;SHT31;59082;50.658;4.608;2022-12-07T13:47:51;6.94;99.99
71297;SHT31;59082;50.658;4.608;2022-12-07T13:50:25;7.01;99.99
71297;SHT31;59082;50.658;4.608;2022-12-07T13:52:55;6.57;99.99
71297;SHT31;59082;50.658;4.608;2022-12-07T13:55:22;6.63;99.99
71297;SHT31;59082;50.658;4.608;2022-12-07T13:57:51;6.74;99.99
71297;SHT31;59082;50.658;4.608;2022-12-07T14:00:20;6.61;99.99
71297;SHT31;59082;50.658;4.608;2022-12-07T14:03:01;6.50;99.99
71297;SHT31;59082;50.658;4.608;2022-12-07T14:05:35;6.36;99.99
71297;SHT31;59082;50.658;4.608;2022-12-07T14:08:03;6.25;99.99
71297;SHT31;59082;50.658;4.608;2022-12-07T14:10:31;6.28;99.99
71297;SHT31;59082;50.658;4.608;2022-12-07T14:12:58;6.34;99.99
71297;SHT31;59082;50.658;4.608;2022-12-07T14:15:28;6.40;99.99
71297;SHT31;59082;50.658;4.608;2022-12-07T14:17:55;6.46;99.99
71297;SHT31;59082;50.658;4.608;2022-12-07T14:22:58;6.47;99.99
71297;SHT31;59082;50.658;4.608;2022-12-07T14:25:27;6.50;99.99
71297;SHT31;59082;50.658;4.608;2022-12-07T14:27:58;6.49;99.99
71297;SHT31;59082;50.658;4.608;2022-12-07T14:30:29;6.39;99.99
71297;SHT31;59082;50.658;4.608;2022-12-07T14:33:00;6.40;99.99
71297;SHT31;59082;50.658;4.608;2022-12-07T14:35:26;6.44;99.99
71297;SHT31;59082;50.658;4.608;2022-12-07T14:37:52;6.46;99.99
71297;SHT31;59082;50.658;4.608;2022-12-07T14:40:22;6.29;99.99
71297;SHT31;59082;50.658;4.608;2022-12-07T14:42:51;6.33;99.99
71297;SHT31;59082;50.658;4.608;2022-12-07T14:45:21;6.32;99.99
71297;SHT31;59082;50.658;4.608;2022-12-07T14:47:47;6.34;99.99
71297;SHT31;59082;50.658;4.608;2022-12-07T14:50:18;6.21;99.99
71297;SHT31;59082;50.658;4.608;2022-12-07T14:52:55;6.08;99.99
71297;SHT31;59082;50.658;4.608;2022-12-07T14:55:27;5.94;99.99
71297;SHT31;59082;50.658;4.608;2022-12-07T14:57:53;5.94;99.99
71297;SHT31;59082;50.658;4.608;2022-12-07T15:00:21;5.78;99.99
71297;SHT31;59082;50.658;4.608;2022-12-07T15:02:48;5.73;99.99
71297;SHT31;59082;50.658;4.608;2022-12-07T15:05:14;5.73;99.99
71297;SHT31;59082;50.658;4.608;2022-12-07T15:07:39;5.65;99.99
71297;SHT31;59082;50.658;4.608;2022-12-07T15:10:06;5.64;99.99
71297;SHT31;59082;50.658;4.608;2022-12-07T15:12:32;5.51;99.99
71297;SHT31;59082;50.658;4.608;2022-12-07T15:14:57;5.51;99.99
71297;SHT31;59082;50.658;4.608;2022-12-07T15:17:23;5.51;99.99
71297;SHT31;59082;50.658;4.608;2022-12-07T15:19:48;5.40;99.99
71297;SHT31;59082;50.658;4.608;2022-12-07T15:22:14;5.35;99.99
71297;SHT31;59082;50.658;4.608;2022-12-07T15:24:39;5.23;99.99
71297;SHT31;59082;50.658;4.608;2022-12-07T15:27:06;5.18;99.99
71297;SHT31;59082;50.658;4.608;2022-12-07T15:29:31;5.11;99.99
71297;SHT31;59082;50.658;4.608;2022-12-07T15:31:57;5.02;99.99
71297;SHT31;59082;50.658;4.608;2022-12-07T15:34:24;4.93;99.99
71297;SHT31;59082;50.658;4.608;2022-12-07T15:36:50;4.81;99.99
71297;SHT31;59082;50.658;4.608;2022-12-07T15:39:16;4.60;99.99
71297;SHT31;59082;50.658;4.608;2022-12-07T15:41:42;4.50;99.99
71297;SHT31;59082;50.658;4.608;2022-12-07T15:44:11;4.47;99.99
71297;SHT31;59082;50.658;4.608;2022-12-07T15:46:55;4.40;99.99
71297;SHT31;59082;50.658;4.608;2022-12-07T15:49:21;4.50;99.99
71297;SHT31;59082;50.658;4.608;2022-12-07T15:51:46;4.46;99.99
71297;SHT31;59082;50.658;4.608;2022-12-07T15:54:21;4.50;99.99
71297;SHT31;59082;50.658;4.608;2022-12-07T15:56:47;4.51;99.99
71297;SHT31;59082;50.658;4.608;2022-12-07T15:59:13;4.50;99.99
71297;SHT31;59082;50.658;4.608;2022-12-07T16:01:38;4.50;99.99
71297;SHT31;59082;50.658;4.608;2022-12-07T16:04:04;4.51;99.99
71297;SHT31;59082;50.658;4.608;2022-12-07T16:06:29;4.56;99.99
71297;SHT31;59082;50.658;4.608;2022-12-07T16:08:55;4.49;99.99
71297;SHT31;59082;50.658;4.608;2022-12-07T16:11:21;4.44;99.99
71297;SHT31;59082;50.658;4.608;2022-12-07T16:13:46;4.47;99.99
71297;SHT31;59082;50.658;4.608;2022-12-07T16:16:14;4.46;99.99
71297;SHT31;59082;50.658;4.608;2022-12-07T16:18:42;4.47;99.99
71297;SHT31;59082;50.658;4.608;2022-12-07T16:21:08;4.46;99.99
71297;SHT31;59082;50.658;4.608;2022-12-07T16:23:34;4.47;99.99
71297;SHT31;59082;50.658;4.608;2022-12-07T16:26:14;4.43;99.99
71297;SHT31;59082;50.658;4.608;2022-12-07T16:28:40;4.41;99.99
71297;SHT31;59082;50.658;4.608;2022-12-07T16:31:10;4.41;99.99
71297;SHT31;59082;50.658;4.608;2022-12-07T16:33:37;4.43;99.99
71297;SHT31;59082;50.658;4.608;2022-12-07T16:36:05;4.41;99.99
71297;SHT31;59082;50.658;4.608;2022-12-07T16:38:31;4.36;99.99
71297;SHT31;59082;50.658;4.608;2022-12-07T16:40:57;4.30;99.99
71297;SHT31;59082;50.658;4.608;2022-12-07T16:43:22;4.29;99.99
71297;SHT31;59082;50.658;4.608;2022-12-07T16:45:48;4.32;99.99
71297;SHT31;59082;50.658;4.608;2022-12-07T16:48:14;4.26;99.99
71297;SHT31;59082;50.658;4.608;2022-12-07T16:50:40;4.29;99.99
71297;SHT31;59082;50.658;4.608;2022-12-07T16:53:07;4.29;99.99
71297;SHT31;59082;50.658;4.608;2022-12-07T16:55:43;4.24;99.99
71297;SHT31;59082;50.658;4.608;2022-12-07T16:58:13;4.24;99.99
71297;SHT31;59082;50.658;4.608;2022-12-07T17:00:40;4.28;99.99
71297;SHT31;59082;50.658;4.608;2022-12-07T17:03:06;4.28;99.99
71297;SHT31;59082;50.658;4.608;2022-12-07T17:05:32;4.29;99.99
71297;SHT31;59082;50.658;4.608;2022-12-07T17:07:58;4.26;99.99
71297;SHT31;59082;50.658;4.608;2022-12-07T17:10:25;4.23;99.99
71297;SHT31;59082;50.658;4.608;2022-12-07T17:12:51;4.28;99.99
71297;SHT31;59082;50.658;4.608;2022-12-07T17:15:18;4.32;99.99
71297;SHT31;59082;50.658;4.608;2022-12-07T17:17:51;4.36;99.99
71297;SHT31;59082;50.658;4.608;2022-12-07T17:20:17;4.34;99.99
71297;SHT31;59082;50.658;4.608;2022-12-07T17:22:44;4.32;99.99
71297;SHT31;59082;50.658;4.608;2022-12-07T17:25:09;4.26;99.99
71297;SHT31;59082;50.658;4.608;2022-12-07T17:27:35;4.32;99.99
71297;SHT31;59082;50.658;4.608;2022-12-07T17:30:02;4.36;99.99
71297;SHT31;59082;50.658;4.608;2022-12-07T17:32:27;4.40;99.99
71297;SHT31;59082;50.658;4.608;2022-12-07T17:34:53;4.33;99.99
71297;SHT31;59082;50.658;4.608;2022-12-07T17:37:19;4.39;99.99
71297;SHT31;59082;50.658;4.608;2022-12-07T17:39:44;4.39;99.99
71297;SHT31;59082;50.658;4.608;2022-12-07T17:42:09;4.41;99.99
71297;SHT31;59082;50.658;4.608;2022-12-07T17:44:54;4.39;99.99
71297;SHT31;59082;50.658;4.608;2022-12-07T17:47:19;4.34;99.99
71297;SHT31;59082;50.658;4.608;2022-12-07T17:49:46;4.40;99.99
71297;SHT31;59082;50.658;4.608;2022-12-07T17:52:12;4.44;99.99
71297;SHT31;59082;50.658;4.608;2022-12-07T17:54:56;4.49;99.99
71297;SHT31;59082;50.658;4.608;2022-12-07T17:57:22;4.39;99.99
71297;SHT31;59082;50.658;4.608;2022-12-07T17:59:50;4.32;99.99
71297;SHT31;59082;50.658;4.608;2022-12-07T18:02:17;4.36;99.99
71297;SHT31;59082;50.658;4.608;2022-12-07T18:04:43;4.39;99.99
71297;SHT31;59082;50.658;4.608;2022-12-07T18:07:10;4.34;99.99
71297;SHT31;59082;50.658;4.608;2022-12-07T18:09:35;4.30;99.99
71297;SHT31;59082;50.658;4.608;2022-12-07T18:12:01;4.33;99.99
71297;SHT31;59082;50.658;4.608;2022-12-07T18:14:27;4.40;99.99
71297;SHT31;59082;50.658;4.608;2022-12-07T18:16:55;4.40;99.99
71297;SHT31;59082;50.658;4.608;2022-12-07T18:19:21;4.43;99.99
71297;SHT31;59082;50.658;4.608;2022-12-07T18:21:47;4.46;99.99
71297;SHT31;59082;50.658;4.608;2022-12-07T18:24:14;4.47;99.99
71297;SHT31;59082;50.658;4.608;2022-12-07T18:26:41;4.50;99.99
71297;SHT31;59082;50.658;4.608;2022-12-07T18:29:07;4.49;99.99
71297;SHT31;59082;50.658;4.608;2022-12-07T18:31:35;4.50;99.99
71297;SHT31;59082;50.658;4.608;2022-12-07T18:34:03;4.47;99.99
71297;SHT31;59082;50.658;4.608;2022-12-07T18:36:32;4.44;99.99
71297;SHT31;59082;50.658;4.608;2022-12-07T18:38:58;4.49;99.99
71297;SHT31;59082;50.658;4.608;2022-12-07T18:41:24;4.47;99.99
71297;SHT31;59082;50.658;4.608;2022-12-07T18:43:49;4.56;99.99
71297;SHT31;59082;50.658;4.608;2022-12-07T18:46:17;4.58;99.99
71297;SHT31;59082;50.658;4.608;2022-12-07T18:48:43;4.51;99.99
71297;SHT31;59082;50.658;4.608;2022-12-07T18:51:15;4.47;99.99
71297;SHT31;59082;50.658;4.608;2022-12-07T18:53:41;4.41;99.99
71297;SHT31;59082;50.658;4.608;2022-12-07T18:56:11;4.36;99.99
71297;SHT31;59082;50.658;4.608;2022-12-07T18:58:38;4.30;99.99
71297;SHT31;59082;50.658;4.608;2022-12-07T19:01:24;4.36;99.99
71297;SHT31;59082;50.658;4.608;2022-12-07T19:03:50;4.36;99.99
71297;SHT31;59082;50.658;4.608;2022-12-07T19:06:16;4.37;99.99
71297;SHT31;59082;50.658;4.608;2022-12-07T19:08:41;4.36;99.99
71297;SHT31;59082;50.658;4.608;2022-12-07T19:11:07;4.34;99.99
71297;SHT31;59082;50.658;4.608;2022-12-07T19:13:52;4.33;99.99
71297;SHT31;59082;50.658;4.608;2022-12-07T19:16:19;4.34;99.99
71297;SHT31;59082;50.658;4.608;2022-12-07T19:18:44;4.44;99.99
71297;SHT31;59082;50.658;4.608;2022-12-07T19:21:10;4.41;99.99
71297;SHT31;59082;50.658;4.608;2022-12-07T19:23:35;4.41;99.99
71297;SHT31;59082;50.658;4.608;2022-12-07T19:26:01;4.41;99.99
71297;SHT31;59082;50.658;4.608;2022-12-07T19:28:26;4.37;99.99
71297;SHT31;59082;50.658;4.608;2022-12-07T19:30:52;4.33;99.99
71297;SHT31;59082;50.658;4.608;2022-12-07T19:33:18;4.22;99.99
71297;SHT31;59082;50.658;4.608;2022-12-07T19:35:43;4.10;99.99
71297;SHT31;59082;50.658;4.608;2022-12-07T19:38:09;3.95;99.99
71297;SHT31;59082;50.658;4.608;2022-12-07T19:40:34;3.84;99.99
71297;SHT31;59082;50.658;4.608;2022-12-07T19:42:59;3.77;99.99
71297;SHT31;59082;50.658;4.608;2022-12-07T19:45:25;3.74;99.99
71297;SHT31;59082;50.658;4.608;2022-12-07T19:47:53;3.63;99.99
71297;SHT31;59082;50.658;4.608;2022-12-07T19:50:18;3.60;99.99
71297;SHT31;59082;50.658;4.608;2022-12-07T19:52:44;3.48;99.99
71297;SHT31;59082;50.658;4.608;2022-12-07T19:55:15;3.44;99.99
71297;SHT31;59082;50.658;4.608;2022-12-07T19:57:41;3.41;99.99
71297;SHT31;59082;50.658;4.608;2022-12-07T20:00:06;3.44;99.99
71297;SHT31;59082;50.658;4.608;2022-12-07T20:02:32;3.48;99.99
71297;SHT31;59082;50.658;4.608;2022-12-07T20:04:58;3.53;99.99
71297;SHT31;59082;50.658;4.608;2022-12-07T20:07:23;3.60;99.99
71297;SHT31;59082;50.658;4.608;2022-12-07T20:09:49;3.64;99.99
71297;SHT31;59082;50.658;4.608;2022-12-07T20:12:15;3.57;99.99
71297;SHT31;59082;50.658;4.608;2022-12-07T20:14:59;3.57;99.99
71297;SHT31;59082;50.658;4.608;2022-12-07T20:17:25;3.55;99.99
71297;SHT31;59082;50.658;4.608;2022-12-07T20:19:50;3.57;99.99
71297;SHT31;59082;50.658;4.608;2022-12-07T20:22:16;3.53;99.99
71297;SHT31;59082;50.658;4.608;2022-12-07T20:24:41;3.48;99.99
71297;SHT31;59082;50.658;4.608;2022-12-07T20:27:07;3.53;99.99
71297;SHT31;59082;50.658;4.608;2022-12-07T20:29:33;3.54;99.99
71297;SHT31;59082;50.658;4.608;2022-12-07T20:31:58;3.60;99.99
71297;SHT31;59082;50.658;4.608;2022-12-07T20:34:24;3.61;99.99
71297;SHT31;59082;50.658;4.608;2022-12-07T20:36:51;3.67;99.99
71297;SHT31;59082;50.658;4.608;2022-12-07T20:39:16;3.68;99.99
71297;SHT31;59082;50.658;4.608;2022-12-07T20:41:42;3.68;99.99
71297;SHT31;59082;50.658;4.608;2022-12-07T20:44:26;3.61;99.99
71297;SHT31;59082;50.658;4.608;2022-12-07T20:46:52;3.60;99.99
71297;SHT31;59082;50.658;4.608;2022-12-07T20:49:17;3.47;99.99
71297;SHT31;59082;50.658;4.608;2022-12-07T20:51:43;3.47;99.99
71297;SHT31;59082;50.658;4.608;2022-12-07T20:54:09;3.44;99.99
71297;SHT31;59082;50.658;4.608;2022-12-07T20:56:34;3.37;99.99
71297;SHT31;59082;50.658;4.608;2022-12-07T20:59:03;3.31;99.99
71297;SHT31;59082;50.658;4.608;2022-12-07T21:01:29;3.33;99.99
71297;SHT31;59082;50.658;4.608;2022-12-07T21:03:57;3.38;99.99
71297;SHT31;59082;50.658;4.608;2022-12-07T21:06:24;3.47;99.99
71297;SHT31;59082;50.658;4.608;2022-12-07T21:08:52;3.58;99.99
71297;SHT31;59082;50.658;4.608;2022-12-07T21:11:18;3.60;99.99
71297;SHT31;59082;50.658;4.608;2022-12-07T21:13:44;3.72;99.99
71297;SHT31;59082;50.658;4.608;2022-12-07T21:16:12;3.72;99.99
71297;SHT31;59082;50.658;4.608;2022-12-07T21:18:39;3.77;99.99
71297;SHT31;59082;50.658;4.608;2022-12-07T21:21:06;3.78;99.99
71297;SHT31;59082;50.658;4.608;2022-12-07T21:23:32;3.85;99.99
